KRQO

El Reno Regional Airport

El Reno, Oklahoma, USA
METAR KRQO 110415Z AUTO 19007KT 10SM CLR 00/M06 A3030 RMK AO2 T10031055
Observed Flight Rules
Dec-11 @ 04:15 UTC (18 minutes ago) Visual Flight Rules
Wind Visibility Clouds
190° at 7 knots 10 miles
  • Clear skies
Temperatures Readings
Current -0°C / 32°F
Dewpoint -6°C / 21°F
Humidity 64%
Altimeter 30.3" Hg
Pressure 1026 hPa
Elevation 432
METAR KRQO 110415Z AUTO 19007KT 10SM CLR 00/M06 A3030 RMK AO2 T10031055
Observed Flight Rules
Dec-11 @ 04:15 UTC
(18 minutes ago)
VFR
Wind Visibility
190° at 7 knots 10 miles
Clouds
  • Clear skies
Temperature Dewpoint
-0°C / 32°F -6°C / 21°F
Humidity Altimeter Pressure
64% 30.3" Hg 1026 hPa